Time;durP1;ratioP1;P1;durP2;ratioP2;P2;SDS_P1;SDS_P2;PMS_P1;PMS_P2;Temp;Humidity;BMP_temperature;BMP_pressure;BME280_temperature;BME280_humidity;BME280_pressure;Samples;Min_cycle;Max_cycle;Signal;HPM_P1;HPM_P2
2023/01/04 00:00:35;;;;;;;9.40;1.97;;;;;;;7.59;100.00;101833.69;10427350;28;20041;-81
2023/01/04 00:05:35;;;;;;;12.18;2.28;;;;;;;7.58;100.00;101843.19;10445642;28;20045;-81
2023/01/04 00:10:36;;;;;;;5.30;1.98;;;;;;;7.53;100.00;101852.34;10470730;28;20056;-82
2023/01/04 00:15:36;;;;;;;4.28;2.83;;;;;;;7.39;100.00;101833.09;10487698;28;20064;-82
2023/01/04 00:20:37;;;;;;;6.32;2.10;;;;;;;7.20;100.00;101830.75;10414879;28;20041;-82
2023/01/04 00:25:38;;;;;;;11.95;1.95;;;;;;;7.05;100.00;101817.50;10401881;28;20057;-81
2023/01/04 00:30:38;;;;;;;11.18;3.53;;;;;;;6.97;100.00;101811.69;10447558;28;20037;-80
2023/01/04 00:35:39;;;;;;;9.38;2.50;;;;;;;7.00;100.00;101811.91;10478406;28;20060;-82
2023/01/04 00:40:39;;;;;;;9.60;3.55;;;;;;;6.98;100.00;101794.38;10453193;28;20035;-81
2023/01/04 00:45:42;;;;;;;8.00;2.75;;;;;;;7.04;100.00;101793.13;10452214;28;20044;-81
2023/01/04 00:50:44;;;;;;;5.10;2.28;;;;;;;7.15;100.00;101761.81;10454230;28;20037;-82
2023/01/04 00:55:44;;;;;;;2.63;2.08;;;;;;;7.03;100.00;101777.41;10441822;28;20053;-82
2023/01/04 01:00:45;;;;;;;11.23;2.15;;;;;;;7.02;100.00;101773.00;10450935;28;20159;-82
2023/01/04 01:05:45;;;;;;;10.73;2.83;;;;;;;6.84;100.00;101777.69;10443107;28;20037;-82
2023/01/04 01:10:46;;;;;;;6.53;2.50;;;;;;;6.68;100.00;101755.69;10473591;28;20146;-81
2023/01/04 01:15:46;;;;;;;6.47;2.58;;;;;;;6.68;100.00;101740.06;10484760;28;20040;-80
2023/01/04 01:20:47;;;;;;;10.68;2.63;;;;;;;6.58;100.00;101777.47;10456017;28;20155;-81
2023/01/04 01:25:47;;;;;;;9.32;3.55;;;;;;;6.67;100.00;101779.00;10420257;28;20508;-80
2023/01/04 01:30:48;;;;;;;6.57;2.85;;;;;;;6.68;100.00;101766.09;10444413;28;20045;-80
2023/01/04 01:35:48;;;;;;;6.97;2.75;;;;;;;6.70;100.00;101769.72;10442231;28;20469;-80
2023/01/04 01:40:49;;;;;;;6.40;3.63;;;;;;;6.67;100.00;101756.47;10440332;28;20047;-81
2023/01/04 01:45:54;;;;;;;6.35;2.85;;;;;;;6.69;100.00;101741.00;10441504;28;20451;-80
2023/01/04 01:50:56;;;;;;;7.28;2.25;;;;;;;6.69;100.00;101736.69;10391074;28;20107;-80
2023/01/04 01:55:57;;;;;;;7.97;3.20;;;;;;;6.71;100.00;101748.13;10442568;28;20055;-81
2023/01/04 02:00:57;;;;;;;6.85;1.92;;;;;;;6.79;100.00;101737.38;10452258;28;20124;-80
2023/01/04 02:05:58;;;;;;;7.40;3.10;;;;;;;6.91;100.00;101743.53;10440264;28;20094;-81
2023/01/04 02:10:58;;;;;;;4.95;2.38;;;;;;;6.98;100.00;101751.03;10451751;28;20069;-81
2023/01/04 02:16:34;;;;;;;12.38;3.28;;;;;;;7.10;100.00;101745.84;10434119;28;20040;-80
2023/01/04 02:21:43;;;;;;;3.05;1.45;;;;;;;7.22;100.00;101729.34;10359194;28;20132;-79
2023/01/04 02:27:20;;;;;;;3.67;1.40;;;;;;;7.33;100.00;101724.13;10440015;28;20033;-81
2023/01/04 02:32:39;;;;;;;8.13;1.83;;;;;;;7.41;100.00;101716.91;10446873;28;20454;-81
2023/01/04 02:37:49;;;;;;;3.22;1.50;;;;;;;7.49;100.00;101704.44;10479849;28;20039;-81
2023/01/04 02:53:37;;;;;;;4.60;0.80;;;;;;;7.69;100.00;101664.22;10449938;28;20028;-81
2023/01/04 02:58:56;;;;;;;4.77;1.30;;;;;;;7.86;100.00;101659.31;10435297;28;20041;-82
2023/01/04 03:09:34;;;;;;;1.33;0.65;;;;;;;7.90;100.00;101643.09;10469981;28;20045;-82
2023/01/04 03:14:37;;;;;;;3.10;0.80;;;;;;;7.88;100.00;101650.78;10448434;28;20511;-81
2023/01/04 03:19:50;;;;;;;2.10;0.82;;;;;;;7.77;100.00;101649.13;10437247;28;20059;-81
2023/01/04 03:35:58;;;;;;;1.30;0.57;;;;;;;7.66;100.00;101618.78;10459194;28;20400;-79
2023/01/04 03:51:48;;;;;;;3.42;0.57;;;;;;;7.99;100.00;101608.94;10447379;28;20124;-81
2023/01/04 03:56:48;;;;;;;0.90;0.47;;;;;;;8.04;100.00;101608.47;10427784;28;20098;-81
2023/01/04 04:01:49;;;;;;;4.35;0.43;;;;;;;8.07;100.00;101605.16;10413530;28;20111;-81
2023/01/04 04:12:09;;;;;;;3.35;0.55;;;;;;;7.85;100.00;101600.16;10435357;28;20041;-80
2023/01/04 04:17:09;;;;;;;1.08;0.90;;;;;;;7.78;100.00;101599.72;10436109;28;20041;-81
2023/01/04 04:22:10;;;;;;;3.47;1.40;;;;;;;7.70;100.00;101590.47;10477852;28;20029;-81
2023/01/04 04:27:10;;;;;;;1.50;0.80;;;;;;;7.64;100.00;101603.94;10484799;28;20492;-81
2023/01/04 04:32:11;;;;;;;1.10;0.70;;;;;;;7.66;100.00;101575.41;10451474;28;20083;-81
2023/01/04 04:37:11;;;;;;;3.22;1.40;;;;;;;7.71;100.00;101588.75;10426660;28;20123;-81
2023/01/04 04:42:12;;;;;;;2.95;1.50;;;;;;;7.83;100.00;101560.94;10453007;28;20041;-81
2023/01/04 04:47:12;;;;;;;1.88;0.93;;;;;;;7.93;100.00;101557.28;10443954;28;20037;-80
2023/01/04 04:52:12;;;;;;;3.28;0.98;;;;;;;8.01;100.00;101535.28;10473969;28;20128;-80
2023/01/04 04:57:13;;;;;;;1.60;0.70;;;;;;;8.08;100.00;101536.59;10485566;28;20430;-81
2023/01/04 05:02:13;;;;;;;1.25;0.55;;;;;;;8.07;100.00;101525.25;10451468;28;20037;-81
2023/01/04 05:07:14;;;;;;;1.55;0.80;;;;;;;8.11;100.00;101526.34;10458255;28;20458;-81
2023/01/04 05:17:34;;;;;;;1.70;0.75;;;;;;;8.28;100.00;101505.72;10442786;28;20101;-80
2023/01/04 05:22:34;;;;;;;1.85;1.17;;;;;;;8.31;100.00;101519.91;10444280;28;20105;-81
2023/01/04 05:27:35;;;;;;;2.65;1.02;;;;;;;8.37;100.00;101515.09;10441074;28;20117;-81
2023/01/04 05:32:35;;;;;;;2.70;1.55;;;;;;;8.46;100.00;101485.22;10423088;28;20121;-81
2023/01/04 05:37:36;;;;;;;3.83;1.42;;;;;;;8.52;100.00;101523.06;10491147;28;20042;-81
2023/01/04 05:42:36;;;;;;;2.75;1.35;;;;;;;8.56;100.00;101513.75;10441316;28;20175;-79
2023/01/04 05:47:37;;;;;;;3.10;1.35;;;;;;;8.56;100.00;101508.53;10440052;28;20041;-78
2023/01/04 05:52:38;;;;;;;2.25;1.00;;;;;;;8.56;100.00;101507.59;10447261;28;20501;-80
2023/01/04 05:57:38;;;;;;;4.32;1.17;;;;;;;8.61;100.00;101509.75;10398400;28;20493;-80
2023/01/04 06:02:39;;;;;;;2.28;0.82;;;;;;;8.64;100.00;101489.06;10452926;28;20506;-81
2023/01/04 06:07:40;;;;;;;1.77;0.95;;;;;;;8.72;100.00;101481.72;10446283;28;20049;-79
2023/01/04 06:12:40;;;;;;;1.13;1.00;;;;;;;8.72;100.00;101473.00;10407361;28;20032;-81
2023/01/04 06:17:41;;;;;;;2.33;1.20;;;;;;;8.69;100.00;101471.09;10422442;28;20572;-81
2023/01/04 06:22:41;;;;;;;1.33;0.93;;;;;;;8.87;100.00;101467.84;10459155;28;20032;-84
2023/01/04 06:27:42;;;;;;;2.40;1.08;;;;;;;8.85;100.00;101470.38;10489793;28;20127;-82
2023/01/04 06:32:43;;;;;;;1.77;1.00;;;;;;;9.01;100.00;101471.34;10418894;28;20046;-81
2023/01/04 06:37:43;;;;;;;2.03;1.20;;;;;;;9.02;100.00;101468.84;10391307;28;20420;-82
2023/01/04 06:42:43;;;;;;;1.58;1.10;;;;;;;8.99;100.00;101476.47;10422293;28;20076;-82
2023/01/04 06:47:46;;;;;;;1.75;0.80;;;;;;;9.00;100.00;101454.78;10429455;28;20102;-82
2023/01/04 06:52:47;;;;;;;14.73;1.92;;;;;;;9.01;100.00;101455.69;10471519;28;20073;-81
2023/01/04 06:57:47;;;;;;;2.25;0.82;;;;;;;9.01;100.00;101456.56;10386276;28;20520;-81
2023/01/04 07:02:48;;;;;;;3.33;1.20;;;;;;;9.09;100.00;101470.13;10451321;28;20132;-82
2023/01/04 07:07:48;;;;;;;6.57;1.95;;;;;;;9.08;100.00;101463.09;10414105;28;20396;-81
2023/01/04 07:12:49;;;;;;;2.10;1.08;;;;;;;9.12;100.00;101459.88;10406689;28;20496;-81
2023/01/04 07:17:49;;;;;;;3.65;2.30;;;;;;;9.22;100.00;101453.50;10425648;28;20053;-80
2023/01/04 07:22:50;;;;;;;2.20;0.95;;;;;;;9.27;100.00;101453.81;10396897;28;20103;-81
2023/01/04 07:27:52;;;;;;;4.20;1.25;;;;;;;9.25;100.00;101454.63;10401071;28;20098;-80
2023/01/04 07:32:53;;;;;;;2.55;1.23;;;;;;;9.21;100.00;101447.41;10385194;28;20041;-80
2023/01/04 07:37:53;;;;;;;4.55;2.00;;;;;;;9.09;100.00;101457.97;10397710;28;20397;-81
2023/01/04 07:42:55;;;;;;;3.03;2.40;;;;;;;8.97;100.00;101444.13;10402394;28;20055;-83
2023/01/04 07:47:56;;;;;;;3.78;1.70;;;;;;;8.88;100.00;101454.00;10424663;28;20155;-81
2023/01/04 07:52:57;;;;;;;4.05;1.50;;;;;;;8.99;100.00;101431.19;10411589;28;20037;-80
2023/01/04 07:57:57;;;;;;;3.60;2.65;;;;;;;9.13;100.00;101419.00;10441121;28;20049;-81
2023/01/04 08:02:58;;;;;;;2.38;1.13;;;;;;;9.26;100.00;101411.09;10436825;28;20102;-83
2023/01/04 08:07:58;;;;;;;2.53;1.30;;;;;;;9.45;100.00;101386.09;10470019;28;20133;-83
2023/01/04 08:12:59;;;;;;;7.70;2.65;;;;;;;9.51;100.00;101378.63;10440013;28;20033;-82
2023/01/04 08:17:59;;;;;;;3.38;1.30;;;;;;;9.45;100.00;101381.81;10418206;28;20044;-83
2023/01/04 08:23:00;;;;;;;4.40;1.60;;;;;;;9.42;100.00;101392.06;10429309;28;20041;-83
2023/01/04 08:28:01;;;;;;;2.38;1.85;;;;;;;9.36;100.00;101415.19;10397831;28;20044;-80
2023/01/04 08:33:01;;;;;;;2.30;1.10;;;;;;;9.40;100.00;101427.66;10411807;28;20041;-81
2023/01/04 08:38:02;;;;;;;4.50;1.58;;;;;;;9.40;100.00;101436.38;10379460;28;20574;-83
2023/01/04 08:43:02;;;;;;;7.18;1.83;;;;;;;9.49;100.00;101432.53;10385246;28;20037;-84
2023/01/04 08:48:03;;;;;;;1.90;1.25;;;;;;;9.60;100.00;101414.91;10389347;28;20578;-83
2023/01/04 08:53:04;;;;;;;5.57;1.73;;;;;;;9.73;100.00;101416.53;10376836;28;20037;-82
2023/01/04 08:58:06;;;;;;;4.00;1.50;;;;;;;9.81;100.00;101403.09;10391867;28;20061;-81
2023/01/04 09:03:06;;;;;;;3.95;1.67;;;;;;;9.95;100.00;101390.84;10390188;28;20351;-83
2023/01/04 09:08:07;;;;;;;2.08;1.42;;;;;;;10.07;100.00;101387.13;10401205;28;20034;-82
2023/01/04 09:13:07;;;;;;;2.65;1.00;;;;;;;10.18;100.00;101386.03;10401741;28;20072;-82
2023/01/04 09:18:10;;;;;;;2.15;1.33;;;;;;;10.24;100.00;101399.47;10400994;28;20049;-83
2023/01/04 09:23:10;;;;;;;2.25;1.13;;;;;;;10.18;100.00;101375.56;10440338;28;20041;-82
2023/01/04 09:28:11;;;;;;;3.25;1.00;;;;;;;10.03;100.00;101400.84;10441251;28;20056;-82
2023/01/04 09:33:11;;;;;;;1.83;1.10;;;;;;;10.09;100.00;101409.03;10410513;28;20075;-81
2023/01/04 09:38:12;;;;;;;2.83;0.82;;;;;;;10.14;100.00;101415.44;10458119;28;20148;-83
2023/01/04 09:43:17;;;;;;;1.92;1.05;;;;;;;10.16;100.00;101411.19;10440724;28;20029;-82
2023/01/04 09:48:20;;;;;;;3.13;0.82;;;;;;;10.15;100.00;101412.00;10458054;28;20067;-84
2023/01/04 09:53:23;;;;;;;3.38;1.10;;;;;;;9.94;100.00;101437.81;10440031;28;20104;-82
2023/01/04 09:58:34;;;;;;;5.30;1.55;;;;;;;9.78;100.00;101454.28;10473740;28;20493;-83
2023/01/04 10:03:37;;;;;;;11.90;1.67;;;;;;;9.77;100.00;101440.34;10428767;28;20057;-83
2023/01/04 10:08:43;;;;;;;2.20;1.05;;;;;;;9.77;100.00;101458.63;10415372;28;20470;-83
2023/01/04 10:14:11;;;;;;;8.13;1.58;;;;;;;9.83;100.00;101450.25;10399038;28;20088;-83
2023/01/04 10:19:48;;;;;;;2.67;1.23;;;;;;;9.78;100.00;101452.59;10429536;28;20041;-83
2023/01/04 10:25:13;;;;;;;5.55;1.75;;;;;;;9.81;100.00;101429.25;10398557;28;20486;-82
2023/01/04 10:30:27;;;;;;;3.20;1.50;;;;;;;9.78;100.00;101421.22;10400784;28;20072;-83
2023/01/04 10:35:27;;;;;;;2.78;1.88;;;;;;;9.80;100.00;101421.31;10399714;28;20077;-82
2023/01/04 10:40:28;;;;;;;5.55;1.85;;;;;;;9.85;100.00;101425.09;10438803;28;20140;-83
2023/01/04 10:45:59;;;;;;;5.10;1.90;;;;;;;9.85;100.00;101412.03;10404529;28;20030;-81
2023/01/04 10:51:01;;;;;;;3.78;1.70;;;;;;;9.80;100.00;101413.47;10421460;28;20039;-85
2023/01/04 10:56:06;;;;;;;3.80;1.70;;;;;;;9.84;100.00;101407.59;10439462;28;20029;-81
2023/01/04 11:01:17;;;;;;;2.78;1.52;;;;;;;9.84;100.00;101405.91;10435614;28;20091;-79
2023/01/04 11:06:42;;;;;;;9.13;2.78;;;;;;;9.84;100.00;101394.53;10449474;28;20045;-80
2023/01/04 11:11:44;;;;;;;4.55;1.65;;;;;;;9.83;100.00;101397.94;10400300;28;20140;-81
2023/01/04 11:16:47;;;;;;;3.05;1.60;;;;;;;9.91;100.00;101393.19;10410266;28;20493;-81
2023/01/04 11:22:01;;;;;;;6.40;1.52;;;;;;;9.96;100.00;101400.47;10428731;28;20041;-80
2023/01/04 11:27:12;;;;;;;3.28;1.55;;;;;;;9.93;100.00;101389.84;10427059;28;20128;-81
2023/01/04 11:32:31;;;;;;;5.30;1.50;;;;;;;9.96;100.00;101368.22;10451031;28;20040;-82
2023/01/04 11:37:33;;;;;;;2.72;1.60;;;;;;;10.01;100.00;101382.47;10398394;28;20030;-83
2023/01/04 11:42:34;;;;;;;7.38;2.25;;;;;;;9.99;100.00;101374.50;10400879;28;20056;-82
2023/01/04 11:47:34;;;;;;;3.97;1.40;;;;;;;9.90;100.00;101366.13;10403180;28;20490;-80
2023/01/04 11:52:36;;;;;;;3.53;1.90;;;;;;;9.87;100.00;101362.44;10431156;28;20045;-81
2023/01/04 11:57:36;;;;;;;3.33;1.55;;;;;;;9.90;100.00;101386.16;10424012;28;20037;-82
2023/01/04 12:02:37;;;;;;;6.45;1.88;;;;;;;9.89;100.00;101374.78;10421531;28;20127;-81
2023/01/04 12:07:40;;;;;;;4.15;1.77;;;;;;;9.90;100.00;101384.44;10443766;28;20029;-79
2023/01/04 12:12:40;;;;;;;2.00;1.38;;;;;;;9.91;100.00;101360.09;10426833;28;20041;-81
2023/01/04 12:18:02;;;;;;;4.00;2.03;;;;;;;9.91;100.00;101354.84;10431472;28;20041;-82
2023/01/04 12:23:03;;;;;;;2.90;1.80;;;;;;;9.91;100.00;101360.09;10427455;28;20106;-81
2023/01/04 12:28:24;;;;;;;4.25;1.35;;;;;;;9.96;100.00;101357.75;10419006;28;20025;-82
2023/01/04 12:33:31;;;;;;;2.03;1.13;;;;;;;9.94;100.00;101362.88;10394975;28;20053;-81
2023/01/04 12:38:53;;;;;;;3.58;1.20;;;;;;;9.98;100.00;101357.00;10433861;28;20037;-82
2023/01/04 12:43:55;;;;;;;1.23;0.75;;;;;;;9.99;100.00;101357.94;10426797;28;20050;-79
2023/01/04 12:49:04;;;;;;;2.03;1.10;;;;;;;9.99;100.00;101350.97;10461335;28;20481;-81
2023/01/04 12:54:21;;;;;;;2.10;1.10;;;;;;;10.12;100.00;101351.69;10461603;28;20416;-80
2023/01/04 12:59:37;;;;;;;2.42;0.80;;;;;;;10.17;100.00;101357.19;10427410;28;20488;-81
2023/01/04 13:04:39;;;;;;;1.10;0.75;;;;;;;10.20;100.00;101344.28;10433703;28;20496;-82
2023/01/04 13:09:49;;;;;;;2.33;0.80;;;;;;;10.16;100.00;101345.81;10436804;28;20728;-81
2023/01/04 13:14:50;;;;;;;2.67;0.80;;;;;;;10.18;100.00;101344.19;10428910;28;20086;-82
2023/01/04 13:19:51;;;;;;;1.88;1.00;;;;;;;10.26;100.00;101326.31;10454973;28;20049;-79
2023/01/04 13:24:51;;;;;;;1.95;1.10;;;;;;;10.37;100.00;101327.81;10443760;28;20123;-80
2023/01/04 13:29:52;;;;;;;1.30;0.73;;;;;;;10.38;100.00;101305.16;10428755;28;20525;-80
2023/01/04 13:34:54;;;;;;;2.15;1.00;;;;;;;10.36;100.00;101306.78;10384830;28;20724;-80
2023/01/04 13:40:16;;;;;;;;;;;;;;;10.31;100.00;101306.56;10366270;28;20049;-81
2023/01/04 13:45:17;;;;;;;3.17;1.00;;;;;;;10.27;100.00;101318.53;10435320;28;19917;-81
2023/01/04 13:50:32;;;;;;;1.60;0.90;;;;;;;10.31;100.00;101319.63;10439160;28;20048;-82
2023/01/04 13:55:34;;;;;;;1.33;0.80;;;;;;;10.33;100.00;101315.38;10456904;28;20108;-80
2023/01/04 14:00:50;;;;;;;3.22;1.13;;;;;;;10.28;100.00;101316.84;10423016;28;20040;-80
2023/01/04 14:05:51;;;;;;;2.55;1.23;;;;;;;10.30;100.00;101323.06;10388766;28;20100;-80
2023/01/04 14:10:52;;;;;;;5.68;1.38;;;;;;;10.26;100.00;101319.34;10388358;28;20091;-81
2023/01/04 14:16:10;;;;;;;3.05;1.60;;;;;;;10.24;100.00;101326.22;10400847;28;20045;-80
2023/01/04 14:21:17;;;;;;;2.72;1.67;;;;;;;10.26;100.00;101334.16;10400485;28;20482;-79
2023/01/04 14:26:30;;;;;;;4.95;2.03;;;;;;;10.35;100.00;101331.16;10435751;28;20041;-79
2023/01/04 14:31:32;;;;;;;4.55;1.20;;;;;;;10.47;100.00;101320.53;10463237;28;20067;-80
2023/01/04 14:36:39;;;;;;;2.05;1.20;;;;;;;10.52;100.00;101319.06;10383773;28;20136;-79
2023/01/04 14:41:40;;;;;;;3.25;1.30;;;;;;;10.61;100.00;101310.78;10424825;28;20045;-80
2023/01/04 14:46:44;;;;;;;1.73;1.17;;;;;;;10.66;100.00;101318.09;10446886;28;20495;-81
2023/01/04 14:51:49;;;;;;;1.73;0.90;;;;;;;10.72;100.00;101314.91;10430390;28;20041;-82
2023/01/04 14:56:54;;;;;;;4.93;1.40;;;;;;;10.69;100.00;101313.03;10446889;28;20038;-81
2023/01/04 15:01:55;;;;;;;3.00;1.13;;;;;;;10.74;100.00;101318.50;10448978;28;20051;-82
2023/01/04 15:06:59;;;;;;;4.50;1.10;;;;;;;10.74;100.00;101315.88;10431788;28;20049;-81
2023/01/04 15:11:59;;;;;;;3.53;1.75;;;;;;;10.71;100.00;101315.72;10454207;28;20061;-82
2023/01/04 15:17:00;;;;;;;5.13;1.48;;;;;;;10.75;100.00;101311.56;10452451;28;20889;-83
2023/01/04 15:22:00;;;;;;;3.38;1.33;;;;;;;10.77;100.00;101320.41;10456964;28;20044;-83
2023/01/04 15:27:01;;;;;;;4.05;1.10;;;;;;;10.67;100.00;101312.03;10467689;28;20476;-84
2023/01/04 15:32:01;;;;;;;5.68;1.52;;;;;;;10.48;100.00;101324.94;10416595;28;20076;-83
2023/01/04 15:37:02;;;;;;;5.57;1.92;;;;;;;10.34;100.00;101313.66;10415545;28;20552;-83
2023/01/04 15:47:21;;;;;;;5.07;1.95;;;;;;;10.20;100.00;101332.09;10441700;28;20526;-84
2023/01/04 15:52:22;;;;;;;3.78;2.25;;;;;;;10.18;100.00;101325.88;10404960;28;20043;-82
2023/01/04 15:57:22;;;;;;;7.07;2.08;;;;;;;10.15;100.00;101325.69;10427913;28;20043;-82
2023/01/04 16:02:23;;;;;;;7.22;3.47;;;;;;;10.17;100.00;101318.84;10446180;28;20488;-82
2023/01/04 16:07:24;;;;;;;3.05;1.88;;;;;;;10.17;100.00;101323.19;10440711;28;20035;-83
2023/01/04 16:12:43;;;;;;;4.95;2.47;;;;;;;10.16;100.00;101322.28;10395278;28;20461;-81
2023/01/04 16:17:44;;;;;;;6.13;2.83;;;;;;;10.13;100.00;101309.03;10433914;28;20033;-81
2023/01/04 16:22:44;;;;;;;5.15;3.00;;;;;;;10.11;100.00;101303.72;10418990;28;20040;-82
2023/01/04 16:27:45;;;;;;;6.75;2.95;;;;;;;10.16;100.00;101308.31;10460364;28;20036;-81
2023/01/04 16:32:46;;;;;;;3.70;2.28;;;;;;;10.18;100.00;101309.28;10450094;28;20068;-82
2023/01/04 16:37:46;;;;;;;8.55;2.30;;;;;;;10.21;100.00;101310.34;10409599;28;20041;-82
2023/01/04 16:42:50;;;;;;;12.20;2.58;;;;;;;10.27;100.00;101296.72;10433942;28;20069;-81
2023/01/04 16:47:52;;;;;;;6.50;1.60;;;;;;;10.29;100.00;101295.09;10412152;28;20041;-81
2023/01/04 16:52:53;;;;;;;9.68;2.35;;;;;;;10.17;100.00;101295.28;10418900;28;20401;-84
2023/01/04 16:57:53;;;;;;;10.90;3.30;;;;;;;10.02;100.00;101300.56;10418291;28;20124;-83
2023/01/04 17:02:54;;;;;;;11.55;2.33;;;;;;;9.84;100.00;101303.03;10411594;28;20477;-80
2023/01/04 17:07:54;;;;;;;10.80;3.47;;;;;;;9.80;100.00;101295.81;10394886;28;20065;-81
2023/01/04 17:12:55;;;;;;;12.38;3.47;;;;;;;9.86;100.00;101309.25;10390917;28;20045;-81
2023/01/04 17:17:55;;;;;;;20.90;4.25;;;;;;;9.96;100.00;101298.50;10390709;28;20045;-79
2023/01/04 17:22:56;;;;;;;13.82;3.33;;;;;;;9.94;100.00;101301.84;10395029;28;20071;-81
2023/01/04 17:27:56;;;;;;;19.55;5.45;;;;;;;9.88;100.00;101302.38;10425383;28;20048;-80
2023/01/04 17:32:57;;;;;;;12.57;3.88;;;;;;;10.01;100.00;101304.00;10448806;28;20472;-82
2023/01/04 17:37:57;;;;;;;16.35;4.28;;;;;;;10.08;100.00;101316.63;10462557;28;20128;-81
2023/01/04 17:42:58;;;;;;;16.27;5.00;;;;;;;10.07;100.00;101326.97;10445381;28;20041;-80
2023/01/04 17:47:59;;;;;;;24.05;5.70;;;;;;;10.07;100.00;101330.50;10404427;28;20049;-80
2023/01/04 17:52:59;;;;;;;20.27;6.25;;;;;;;10.14;100.00;101342.22;10391774;28;20128;-81
2023/01/04 17:58:00;;;;;;;16.63;5.85;;;;;;;10.12;100.00;101315.97;10397590;28;20401;-80
2023/01/04 18:03:00;;;;;;;15.77;4.68;;;;;;;10.17;100.00;101316.22;10380475;28;20124;-81
2023/01/04 18:08:01;;;;;;;20.23;5.47;;;;;;;10.19;100.00;101296.28;10396757;28;20116;-79
2023/01/04 18:13:01;;;;;;;25.52;6.45;;;;;;;10.19;100.00;101314.59;10377847;28;22267;-81
2023/01/04 18:18:02;;;;;;;15.50;5.30;;;;;;;10.17;100.00;101297.03;10437069;28;20048;-80
2023/01/04 18:23:03;;;;;;;22.27;5.57;;;;;;;10.11;100.00;101315.88;10439816;28;20046;-81
2023/01/04 18:28:03;;;;;;;29.13;5.95;;;;;;;10.16;100.00;101316.16;10430372;28;20037;-82
2023/01/04 18:33:04;;;;;;;23.70;7.25;;;;;;;10.18;100.00;101349.41;10386561;28;20652;-80
2023/01/04 18:38:04;;;;;;;26.15;7.00;;;;;;;10.20;100.00;101346.91;10394026;28;20037;-79
2023/01/04 18:43:05;;;;;;;42.60;9.68;;;;;;;10.25;100.00;101359.41;10409670;28;20045;-82
2023/01/04 18:48:05;;;;;;;30.25;10.00;;;;;;;10.35;100.00;101319.00;10377607;28;20045;-80
2023/01/04 18:53:06;;;;;;;21.90;7.38;;;;;;;10.40;100.00;101319.25;10386165;28;20076;-82
2023/01/04 18:58:06;;;;;;;23.30;9.25;;;;;;;10.34;100.00;101311.03;10400311;28;20389;-83
2023/01/04 19:03:07;;;;;;;20.77;5.95;;;;;;;10.33;100.00;101327.56;10404803;28;20037;-82
2023/01/04 19:08:07;;;;;;;21.80;7.10;;;;;;;10.27;100.00;101339.47;10406842;28;20544;-83
2023/01/04 19:13:08;;;;;;;33.83;8.23;;;;;;;10.21;100.00;101331.28;10380392;28;20041;-81
2023/01/04 19:18:10;;;;;;;27.60;7.22;;;;;;;10.09;100.00;101359.34;10395428;28;20061;-80
2023/01/04 19:23:13;;;;;;;25.30;8.75;;;;;;;10.07;100.00;101369.75;10394821;28;20037;-81
2023/01/04 19:28:13;;;;;;;31.95;7.00;;;;;;;10.16;100.00;101365.84;10429558;28;20432;-81
2023/01/04 19:33:14;;;;;;;25.80;9.00;;;;;;;10.25;100.00;101354.19;10423951;28;20167;-81
2023/01/04 19:38:15;;;;;;;19.17;6.45;;;;;;;10.20;100.00;101354.75;10401183;28;20097;-80
2023/01/04 19:43:15;;;;;;;22.77;7.38;;;;;;;10.20;100.00;101368.72;10431127;28;20136;-80
2023/01/04 19:48:16;;;;;;;32.65;8.23;;;;;;;10.24;100.00;101360.22;10410614;28;20088;-81
2023/01/04 19:53:16;;;;;;;24.90;10.90;;;;;;;10.28;100.00;101366.56;10413512;28;20039;-79
2023/01/04 19:58:17;;;;;;;22.48;7.88;;;;;;;10.25;100.00;101355.91;10395602;28;20200;-80
2023/01/04 20:03:17;;;;;;;32.45;6.40;;;;;;;10.25;100.00;101343.72;10404135;28;20125;-80
2023/01/04 20:08:18;;;;;;;24.17;7.93;;;;;;;10.23;100.00;101353.19;10434874;28;20044;-82
2023/01/04 20:13:18;;;;;;;30.02;8.75;;;;;;;10.28;100.00;101340.38;10419984;28;20042;-81
2023/01/04 20:18:19;;;;;;;24.25;6.18;;;;;;;10.32;100.00;101336.22;10432802;28;20048;-82
2023/01/04 20:23:20;;;;;;;19.20;5.72;;;;;;;10.26;100.00;101339.41;10449622;28;20051;-82
2023/01/04 20:28:22;;;;;;;26.15;6.97;;;;;;;10.23;100.00;101361.03;10445579;28;20090;-82
2023/01/04 20:33:23;;;;;;;24.63;8.40;;;;;;;10.26;100.00;101357.72;10404033;28;20094;-82
2023/01/04 20:38:23;;;;;;;20.92;6.53;;;;;;;10.25;100.00;101350.69;10379841;28;20045;-81
2023/01/04 20:43:33;;;;;;;21.45;7.45;;;;;;;10.28;100.00;101371.78;10394837;28;20128;-81
2023/01/04 20:48:33;;;;;;;24.15;8.40;;;;;;;10.21;100.00;101362.66;10426804;28;20069;-82
2023/01/04 20:53:35;;;;;;;22.38;9.77;;;;;;;10.21;100.00;101370.50;10425170;28;20140;-81
2023/01/04 20:58:35;;;;;;;33.43;10.40;;;;;;;10.22;100.00;101374.94;10392230;28;20049;-82
2023/01/04 21:03:36;;;;;;;23.00;6.88;;;;;;;10.17;100.00;101380.72;10395346;28;20056;-81
2023/01/04 21:08:39;;;;;;;31.48;7.28;;;;;;;10.14;100.00;101373.59;10372876;28;20039;-80
2023/01/04 21:13:41;;;;;;;22.92;9.13;;;;;;;10.13;100.00;101388.41;10378555;28;20045;-81
2023/01/04 21:18:42;;;;;;;25.88;7.07;;;;;;;10.11;100.00;101407.41;10383277;28;20038;-82
2023/01/04 21:23:43;;;;;;;22.92;6.88;;;;;;;10.10;100.00;101395.16;10397696;28;20125;-82
2023/01/04 21:28:44;;;;;;;25.52;6.32;;;;;;;10.14;100.00;101398.06;10395372;28;20462;-81
2023/01/04 21:33:45;;;;;;;30.00;9.25;;;;;;;10.15;100.00;101401.56;10392889;28;20044;-81
2023/01/04 21:38:51;;;;;;;27.58;6.05;;;;;;;10.09;100.00;101381.19;10393494;28;20747;-81
2023/01/04 21:43:54;;;;;;;26.70;8.45;;;;;;;10.14;100.00;101389.28;10405928;28;20128;-82
2023/01/04 21:48:54;;;;;;;;;;;;;;;10.17;100.00;101391.19;10451544;28;20118;-81
2023/01/04 21:53:56;;;;;;;22.17;8.77;;;;;;;10.17;100.00;101386.84;10429215;28;19921;-83
2023/01/04 21:58:56;;;;;;;30.95;6.38;;;;;;;10.16;100.00;101385.03;10426189;28;20045;-81
2023/01/04 22:03:57;;;;;;;17.45;6.88;;;;;;;10.13;100.00;101387.47;10456353;28;20115;-81
2023/01/04 22:08:57;;;;;;;25.73;6.75;;;;;;;10.20;100.00;101384.41;10437683;28;20044;-82
2023/01/04 22:13:58;;;;;;;21.23;6.65;;;;;;;10.16;100.00;101387.66;10453680;28;20518;-82
2023/01/04 22:18:58;;;;;;;28.10;7.05;;;;;;;10.15;100.00;101383.25;10432482;28;20044;-82
2023/01/04 22:23:59;;;;;;;29.17;6.30;;;;;;;10.13;100.00;101387.47;10464833;28;20037;-81
2023/01/04 22:28:59;;;;;;;21.92;6.15;;;;;;;10.14;100.00;101400.66;10470013;28;20044;-81
2023/01/04 22:34:00;;;;;;;23.50;6.68;;;;;;;10.16;100.00;101412.94;10477701;28;20033;-81
2023/01/04 22:39:00;;;;;;;19.95;7.65;;;;;;;10.18;100.00;101409.56;10477148;28;20180;-81
2023/01/04 22:44:03;;;;;;;37.67;6.38;;;;;;;10.16;100.00;101410.31;10444630;28;20045;-84
2023/01/04 22:49:03;;;;;;;;;;;;;;;10.19;100.00;101411.38;10455856;28;20492;-82
2023/01/04 22:54:04;;;;;;;25.17;7.00;;;;;;;10.14;100.00;101420.69;10457851;28;19920;-82
2023/01/04 22:59:04;;;;;;;22.00;6.65;;;;;;;10.11;100.00;101412.66;10463572;28;20393;-81
2023/01/04 23:04:05;;;;;;;18.30;6.88;;;;;;;10.12;100.00;101423.22;10459459;28;20135;-82
2023/01/04 23:09:06;;;;;;;31.30;7.70;;;;;;;10.11;100.00;101439.72;10469812;28;20029;-80
2023/01/04 23:14:08;;;;;;;21.70;7.63;;;;;;;10.04;100.00;101434.03;10441757;28;20047;-81
2023/01/04 23:19:10;;;;;;;15.38;6.03;;;;;;;10.04;100.00;101434.03;10462479;28;20083;-81
2023/01/04 23:24:12;;;;;;;22.73;7.80;;;;;;;9.98;100.00;101445.03;10455600;28;20040;-81
2023/01/04 23:29:13;;;;;;;23.92;6.72;;;;;;;9.96;100.00;101455.41;10430673;28;20041;-81
2023/01/04 23:34:13;;;;;;;23.58;6.60;;;;;;;9.92;100.00;101450.78;10468841;28;20064;-80
2023/01/04 23:39:14;;;;;;;18.30;7.05;;;;;;;9.95;100.00;101447.47;10478804;28;20472;-81
2023/01/04 23:44:19;;;;;;;33.88;7.97;;;;;;;9.89;100.00;101466.28;10459649;28;20498;-81
2023/01/04 23:49:20;;;;;;;23.17;4.78;;;;;;;9.89;100.00;101447.09;10456494;28;20060;-81
2023/01/04 23:54:21;;;;;;;25.77;5.65;;;;;;;9.84;100.00;101455.56;10447150;28;20052;-81